Time;durP1;ratioP1;P1;durP2;ratioP2;P2;SDS_P1;SDS_P2;PMS_P1;PMS_P2;Temp;Humidity;BMP_temperature;BMP_pressure;BME280_temperature;BME280_humidity;BME280_pressure;Samples;Min_cycle;Max_cycle;Signal;HPM_P1;HPM_P2
2021/01/05 00:00:37;;;;;;;10.00;8.83;;;5.30;99.90;;;5.36;74.75;101663.84;5072774;28;20033;-74
2021/01/05 00:03:04;;;;;;;10.90;9.67;;;5.30;99.90;;;5.27;74.56;101666.19;5073047;28;20504;-73
2021/01/05 00:05:32;;;;;;;12.07;9.73;;;5.40;99.90;;;5.33;74.68;101659.41;5071654;28;20040;-74
2021/01/05 00:07:59;;;;;;;10.70;9.60;;;5.40;99.90;;;5.42;74.65;101658.75;5072503;28;20039;-73
2021/01/05 00:10:27;;;;;;;10.23;9.13;;;5.40;99.90;;;5.29;74.24;101626.06;5072888;28;20040;-74
2021/01/05 00:12:54;;;;;;;10.63;9.60;;;5.50;99.90;;;5.33;74.09;101655.88;5072542;28;20086;-72
2021/01/05 00:15:21;;;;;;;10.67;9.57;;;5.50;99.90;;;5.33;74.47;101650.63;5072827;28;20390;-74
2021/01/05 00:17:50;;;;;;;12.40;8.90;;;5.40;99.90;;;5.23;74.42;101636.34;5072694;28;20072;-72
2021/01/05 00:20:21;;;;;;;10.57;9.57;;;5.30;99.90;;;5.25;74.64;101639.03;5072479;28;20036;-74
2021/01/05 00:22:48;;;;;;;10.97;10.00;;;5.30;99.90;;;5.28;74.18;101631.25;5073044;28;20037;-74
2021/01/05 00:25:19;;;;;;;10.47;9.40;;;5.40;99.90;;;5.41;74.35;101654.38;5072408;28;20037;-73
2021/01/05 00:27:46;;;;;;;;;;;5.40;99.90;;;5.34;74.68;101648.03;5073095;28;20094;-73
2021/01/05 00:30:18;;;;;;;10.97;9.83;;;5.40;99.90;;;5.16;74.94;101641.38;5072397;28;19916;-73
2021/01/05 00:32:48;;;;;;;11.20;10.10;;;5.30;99.90;;;5.29;74.71;101661.88;5072410;28;20063;-73
2021/01/05 00:35:21;;;;;;;10.88;9.98;;;5.30;99.90;;;5.24;74.98;101653.00;5071051;28;20080;-73
2021/01/05 00:37:49;;;;;;;10.50;9.53;;;5.30;99.90;;;5.24;74.93;101647.75;5072480;28;20082;-74
2021/01/05 00:40:19;;;;;;;10.93;9.80;;;5.20;99.90;;;5.28;75.30;101645.25;5072459;28;20044;-73
2021/01/05 00:42:47;;;;;;;11.50;10.27;;;5.30;99.90;;;5.27;74.94;101645.19;5072525;28;20454;-73
2021/01/05 00:45:20;;;;;;;12.03;10.17;;;5.30;99.90;;;5.38;74.96;101662.16;5072364;28;20044;-74
2021/01/05 00:47:48;;;;;;;12.53;10.37;;;5.30;99.90;;;5.23;74.37;101643.34;5072217;28;20474;-73
2021/01/05 00:50:16;;;;;;;10.53;9.63;;;5.30;99.90;;;5.28;75.26;101653.09;5071041;28;20072;-74
2021/01/05 00:52:44;;;;;;;11.50;10.47;;;5.30;99.90;;;5.35;75.04;101657.72;5087831;28;20051;-73
2021/01/05 00:55:13;;;;;;;11.40;10.23;;;5.30;99.90;;;5.31;75.28;101655.84;5087822;28;20052;-74
2021/01/05 00:57:44;;;;;;;11.87;10.87;;;5.30;99.90;;;5.26;75.23;101659.16;5070518;28;20052;-73
2021/01/05 01:00:17;;;;;;;11.50;10.20;;;5.30;99.90;;;5.20;75.23;101664.22;5104773;28;20509;-73
2021/01/05 01:02:49;;;;;;;11.40;10.00;;;5.20;99.90;;;5.21;75.28;101650.25;5072167;28;20047;-74
2021/01/05 01:05:21;;;;;;;11.03;9.97;;;5.30;99.90;;;5.27;75.49;101669.69;5087807;28;20041;-73
2021/01/05 01:07:49;;;;;;;10.50;9.60;;;5.20;99.90;;;5.24;75.76;101661.75;5072205;28;20048;-73
2021/01/05 01:10:20;;;;;;;10.97;9.97;;;5.30;99.90;;;5.30;75.57;101672.41;5071233;28;20052;-74
2021/01/05 01:12:48;;;;;;;11.00;10.00;;;5.30;99.90;;;5.32;75.45;101664.59;5070800;28;20062;-72
2021/01/05 01:15:16;;;;;;;11.60;10.50;;;5.30;99.90;;;4.96;75.18;101608.44;5104775;28;20452;-74
2021/01/05 01:17:46;;;;;;;10.33;9.33;;;5.30;99.90;;;5.40;75.08;101668.34;5070680;28;20494;-73
2021/01/05 01:20:17;;;;;;;11.27;10.17;;;5.40;99.90;;;5.36;75.36;101663.84;5074262;28;20040;-74
2021/01/05 01:22:49;;;;;;;11.33;10.23;;;5.40;99.90;;;5.29;75.39;101656.63;5091668;28;20082;-73
2021/01/05 01:25:18;;;;;;;11.63;10.50;;;5.40;99.90;;;5.27;75.29;101656.59;5074725;28;20123;-74
2021/01/05 01:27:47;;;;;;;12.17;10.27;;;5.30;99.90;;;5.07;75.72;101656.84;5091331;28;20409;-74
2021/01/05 01:30:23;;;;;;;11.70;10.50;;;5.20;99.90;;;5.25;75.67;101657.38;5074388;28;20033;-74
2021/01/05 01:32:59;;;;;;;10.40;9.47;;;5.20;99.90;;;5.18;75.66;101700.91;5091527;28;20135;-74
2021/01/05 01:35:31;;;;;;;11.63;10.53;;;5.20;99.90;;;5.36;75.69;101666.47;5075902;28;20044;-73
2021/01/05 01:38:00;;;;;;;11.30;10.07;;;5.30;99.90;;;3.28;75.48;101369.28;5074439;28;20144;-74
2021/01/05 01:40:36;;;;;;;11.33;10.30;;;5.30;99.90;;;5.27;75.67;101688.06;5091446;28;20745;-74
2021/01/05 01:43:08;;;;;;;11.53;10.43;;;5.20;99.90;;;4.50;75.73;101530.19;5108284;28;20139;-74
2021/01/05 01:45:36;;;;;;;11.13;10.17;;;5.30;99.90;;;5.25;75.79;101679.25;5075355;28;20588;-73
2021/01/05 01:48:09;;;;;;;11.50;10.40;;;5.20;99.90;;;5.25;75.74;101667.88;5074362;28;20048;-73
2021/01/05 01:50:38;;;;;;;11.70;10.60;;;5.20;99.90;;;5.13;75.54;101663.16;5091167;28;20052;-73
2021/01/05 01:53:39;;;;;;;11.63;10.53;;;5.20;99.90;;;5.13;75.84;101655.28;5074314;28;20533;-73
2021/01/05 01:56:28;;;;;;;11.50;10.40;;;5.20;99.90;;;5.13;76.39;101667.53;5074100;28;20051;-73
2021/01/05 01:59:30;;;;;;;11.80;10.60;;;5.10;99.90;;;5.08;75.90;101680.47;5073744;28;20040;-74
2021/01/05 02:02:08;;;;;;;11.77;10.67;;;5.10;99.90;;;5.13;76.20;101668.38;5090921;28;20079;-74
2021/01/05 02:04:51;;;;;;;11.27;10.17;;;5.10;99.90;;;5.07;76.33;101662.97;5074005;28;20068;-73
2021/01/05 02:07:50;;;;;;;11.30;10.10;;;5.10;99.90;;;5.05;75.98;101671.66;5075261;28;20049;-73
2021/01/05 02:10:48;;;;;;;;;;;5.10;99.90;;;5.18;76.36;101668.53;5075677;28;20466;-73
2021/01/05 02:13:50;;;;;;;12.53;9.80;;;5.10;99.90;;;5.00;75.93;101639.13;5075151;28;19966;-74
2021/01/05 02:16:33;;;;;;;12.20;11.00;;;5.20;99.90;;;4.99;75.77;101632.13;5063202;28;20044;-72
2021/01/05 02:19:16;;;;;;;11.73;10.27;;;5.10;99.90;;;5.04;76.48;101651.50;5073673;28;20045;-72
2021/01/05 02:21:57;;;;;;;11.30;10.30;;;5.10;99.90;;;5.02;76.77;101656.69;5073742;28;20071;-73
2021/01/05 02:24:42;;;;;;;12.13;10.90;;;5.10;99.90;;;5.09;76.50;101642.06;5090625;28;20037;-73
2021/01/05 02:27:12;;;;;;;12.03;10.80;;;5.10;99.90;;;5.12;76.16;101642.13;5074945;28;20046;-74
2021/01/05 02:29:48;;;;;;;11.07;10.07;;;5.10;99.90;;;5.21;76.38;101659.03;5073123;28;20036;-73
2021/01/05 02:32:37;;;;;;;11.20;10.20;;;5.20;99.90;;;5.22;76.23;101659.91;5073488;28;20051;-73
2021/01/05 02:35:28;;;;;;;10.95;10.05;;;5.20;99.90;;;5.23;75.94;101656.44;5073466;28;20037;-73
2021/01/05 02:38:43;;;;;;;12.13;11.00;;;5.20;99.90;;;5.25;76.28;101662.63;5074439;28;20174;-73
2021/01/05 02:41:43;;;;;;;13.47;10.20;;;5.20;99.90;;;5.19;75.82;101651.94;5074717;28;20186;-74
2021/01/05 02:44:40;;;;;;;11.75;10.75;;;5.20;99.90;;;5.28;76.11;101657.50;5074652;28;20075;-73
2021/01/05 02:47:50;;;;;;;11.30;10.20;;;5.20;99.90;;;5.30;75.70;101659.28;5074345;28;20171;-74
2021/01/05 02:51:29;;;;;;;11.57;10.57;;;5.30;99.90;;;5.16;75.68;101654.50;5074500;28;20055;-74
2021/01/05 02:55:04;;;;;;;12.00;10.90;;;5.20;99.90;;;5.17;76.24;101649.28;5060877;28;20397;-73
2021/01/05 02:58:04;;;;;;;11.87;10.70;;;5.20;99.90;;;5.16;75.90;101662.34;5074203;28;20109;-73
2021/01/05 03:01:54;;;;;;;12.17;10.97;;;5.20;99.90;;;5.13;76.21;101655.28;5074129;28;20101;-74
2021/01/05 03:04:40;;;;;;;11.93;10.93;;;5.20;99.90;;;4.91;76.53;101638.88;5074018;28;20610;-73
2021/01/05 03:07:29;;;;;;;12.10;11.00;;;5.10;99.90;;;5.09;76.05;101660.41;5073959;28;20520;-73
2021/01/05 03:10:42;;;;;;;12.20;11.10;;;5.10;99.90;;;5.05;76.64;101648.06;5073852;28;20067;-74
2021/01/05 03:13:51;;;;;;;12.00;10.90;;;5.10;99.90;;;4.96;76.92;101645.13;5051451;28;20093;-73
2021/01/05 03:16:45;;;;;;;12.10;11.00;;;5.00;99.90;;;5.08;76.41;101651.66;5051512;28;20199;-73
2021/01/05 03:19:41;;;;;;;12.20;11.10;;;5.10;99.90;;;4.87;76.65;101653.63;5069524;28;20535;-74
2021/01/05 03:22:32;;;;;;;12.63;11.43;;;5.00;99.90;;;4.94;77.17;101646.81;5073964;28;20161;-74
2021/01/05 03:25:20;;;;;;;12.60;11.40;;;4.90;99.90;;;4.82;77.26;101633.34;5073537;28;20185;-73
2021/01/05 03:28:12;;;;;;;13.07;11.67;;;4.90;99.90;;;4.36;77.07;101527.13;5073475;28;20047;-73
2021/01/05 03:31:06;;;;;;;13.10;11.90;;;5.00;99.90;;;5.02;77.00;101643.59;5073777;28;20499;-72
2021/01/05 03:33:59;;;;;;;12.40;11.20;;;5.00;99.90;;;5.04;76.87;101643.63;5073684;28;20042;-74
2021/01/05 03:36:45;;;;;;;12.27;11.10;;;5.00;99.90;;;5.05;76.86;101642.81;5073320;28;20055;-72
2021/01/05 03:39:31;;;;;;;12.43;11.23;;;5.10;99.90;;;5.07;76.68;101641.97;5073289;28;20059;-73
2021/01/05 03:42:17;;;;;;;12.23;11.03;;;5.10;99.90;;;4.51;76.37;101527.59;5072446;28;20055;-73
2021/01/05 03:45:05;;;;;;;11.97;10.87;;;5.10;99.90;;;5.07;76.56;101644.59;5073371;28;20048;-74
2021/01/05 03:47:52;;;;;;;12.37;11.00;;;5.10;99.90;;;4.97;76.46;101637.34;5073143;28;20051;-74
2021/01/05 03:50:39;;;;;;;12.17;11.07;;;5.00;99.90;;;5.04;76.02;101639.28;5073289;28;20046;-73
2021/01/05 03:53:26;;;;;;;12.03;10.93;;;5.10;99.90;;;4.26;76.60;101517.22;5073255;28;20048;-73
2021/01/05 03:56:12;;;;;;;11.87;10.77;;;4.90;99.90;;;4.60;76.06;101561.06;5073215;28;20060;-73
2021/01/05 03:58:58;;;;;;;12.30;11.20;;;5.00;99.90;;;4.97;75.98;101608.50;5072623;28;20579;-73
2021/01/05 04:01:52;;;;;;;11.80;10.80;;;5.10;99.90;;;5.29;76.08;101633.03;5073090;28;20050;-74
2021/01/05 04:04:20;;;;;;;12.40;11.20;;;5.20;99.90;;;5.14;75.74;101609.88;5073028;28;20033;-73
2021/01/05 04:06:48;;;;;;;12.00;10.73;;;5.30;99.90;;;5.24;75.97;101627.66;5072944;28;20385;-73
2021/01/05 04:09:16;;;;;;;11.50;10.40;;;5.20;99.90;;;5.30;75.46;101629.56;5072898;28;20374;-73
2021/01/05 04:11:43;;;;;;;12.07;10.97;;;5.30;99.90;;;5.34;75.50;101627.06;5072718;28;20366;-73
2021/01/05 04:14:10;;;;;;;12.20;11.07;;;5.30;99.90;;;5.29;75.52;101628.69;5071548;28;20044;-73
2021/01/05 04:16:38;;;;;;;12.73;11.53;;;5.30;99.90;;;5.14;75.46;101627.34;5072842;28;20037;-73
2021/01/05 04:19:05;;;;;;;13.03;11.63;;;5.20;99.90;;;5.11;75.63;101627.25;5072425;28;20036;-74
2021/01/05 04:21:32;;;;;;;12.93;11.67;;;5.20;99.90;;;5.19;75.56;101630.97;5072492;28;20093;-73
2021/01/05 04:24:01;;;;;;;12.93;11.60;;;5.20;99.90;;;5.06;76.10;101628.84;5072410;28;20048;-74
2021/01/05 04:26:28;;;;;;;13.07;11.60;;;5.10;99.90;;;5.17;75.78;101630.03;5072400;28;20362;-74
2021/01/05 04:28:55;;;;;;;14.47;12.97;;;5.10;99.90;;;5.03;75.95;101628.75;5072384;28;20098;-73
2021/01/05 04:31:23;;;;;;;13.77;12.47;;;5.10;99.90;;;5.01;76.23;101633.06;5072636;28;20032;-73
2021/01/05 04:33:50;;;;;;;13.10;11.90;;;5.00;99.90;;;4.77;76.67;101598.25;5072594;28;20040;-73
2021/01/05 04:36:18;;;;;;;15.07;12.77;;;5.00;99.90;;;4.78;76.46;101594.78;5072260;28;20070;-73
2021/01/05 04:38:46;;;;;;;13.10;11.90;;;5.00;99.90;;;5.10;76.34;101620.22;5072116;28;20068;-74
2021/01/05 04:41:18;;;;;;;13.63;12.27;;;5.10;99.90;;;5.08;76.11;101619.28;5072489;28;20363;-72
2021/01/05 04:43:51;;;;;;;13.67;12.37;;;5.10;99.90;;;5.09;76.46;101632.44;5072235;28;20045;-73
2021/01/05 04:46:42;;;;;;;13.47;12.07;;;5.10;99.90;;;5.04;76.56;101620.03;5072206;28;20096;-73
2021/01/05 04:49:38;;;;;;;14.33;12.90;;;5.10;99.90;;;4.84;76.14;101574.03;5072129;28;20128;-74
2021/01/05 04:52:11;;;;;;;14.50;13.10;;;5.10;99.90;;;4.91;76.38;101596.94;5071056;28;20075;-74
2021/01/05 04:54:44;;;;;;;13.83;12.43;;;5.10;99.90;;;4.89;76.31;101628.34;5072591;28;20044;-74
2021/01/05 04:57:23;;;;;;;14.10;12.70;;;5.00;99.90;;;5.05;76.54;101613.97;5072165;28;20131;-74
2021/01/05 04:59:57;;;;;;;14.40;12.87;;;5.10;99.90;;;4.99;76.36;101619.03;5071989;28;20082;-74
2021/01/05 05:02:44;;;;;;;15.30;12.60;;;5.00;99.90;;;5.17;75.91;101614.31;5072092;28;20572;-74
2021/01/05 05:05:47;;;;;;;14.03;11.93;;;5.10;99.90;;;5.11;75.72;101615.03;5072269;28;20049;-73
2021/01/05 05:08:37;;;;;;;13.53;12.13;;;5.20;99.90;;;5.15;75.90;101616.03;5071894;28;20086;-76
2021/01/05 05:11:10;;;;;;;13.67;12.37;;;5.10;99.90;;;5.01;75.81;101575.41;5072175;28;20123;-74
2021/01/05 05:13:49;;;;;;;15.53;13.03;;;5.20;99.90;;;4.93;75.69;101563.78;5072237;28;20036;-74
2021/01/05 05:16:51;;;;;;;14.53;13.03;;;5.20;99.90;;;5.08;76.02;101629.78;5071958;28;20466;-74
2021/01/05 05:19:42;;;;;;;14.30;12.77;;;5.20;99.90;;;5.16;76.06;101607.28;5072088;28;20039;-72
2021/01/05 05:22:15;;;;;;;14.37;12.97;;;5.20;99.90;;;5.09;75.68;101598.34;5087491;28;20362;-73
2021/01/05 05:24:53;;;;;;;15.03;13.37;;;5.20;99.90;;;5.13;75.93;101620.34;5071765;28;20371;-75
2021/01/05 05:27:30;;;;;;;14.57;13.07;;;5.20;99.90;;;5.19;76.15;101631.88;5071733;28;20048;-74
2021/01/05 05:30:06;;;;;;;14.73;13.13;;;5.20;99.90;;;4.91;76.65;101599.56;5072063;28;20107;-75
2021/01/05 05:32:38;;;;;;;14.43;13.00;;;5.10;99.90;;;5.14;76.63;101635.19;5071748;28;20102;-76
2021/01/05 05:35:46;;;;;;;13.73;12.27;;;5.10;99.90;;;5.18;76.84;101627.47;5071761;28;20093;-76
2021/01/05 05:38:31;;;;;;;14.27;12.77;;;5.10;99.90;;;5.23;76.29;101625.88;5071954;28;20047;-76
2021/01/05 05:41:12;;;;;;;14.47;12.77;;;5.20;99.90;;;5.08;77.11;101632.41;5071938;28;20033;-76
2021/01/05 05:43:52;;;;;;;;;;;5.10;99.90;;;5.03;76.93;101623.53;5087791;28;20040;-77
2021/01/05 05:46:27;;;;;;;14.05;12.68;;;5.10;99.90;;;5.01;77.54;101633.97;5071928;28;19920;-76
2021/01/05 05:49:03;;;;;;;14.60;12.97;;;5.00;99.90;;;5.10;77.43;101649.97;5071619;28;20047;-76
2021/01/05 05:51:34;;;;;;;14.60;13.10;;;5.10;99.90;;;5.07;77.04;101641.97;5104389;28;20158;-76
2021/01/05 05:54:14;;;;;;;13.37;11.97;;;5.10;99.90;;;4.98;77.22;101620.75;5071575;28;20045;-75
2021/01/05 05:56:59;;;;;;;13.83;12.37;;;5.10;99.90;;;5.21;77.26;101645.00;5071274;28;20040;-76
2021/01/05 05:59:36;;;;;;;14.13;12.70;;;5.20;99.90;;;5.05;76.97;101643.66;5071678;28;20035;-76
2021/01/05 06:02:04;;;;;;;14.13;12.63;;;5.10;99.90;;;4.05;77.33;101476.38;5070442;28;20496;-75
2021/01/05 06:04:38;;;;;;;14.40;12.90;;;5.10;99.90;;;4.96;77.57;101626.78;5072313;28;20048;-76
2021/01/05 06:07:06;;;;;;;14.63;12.60;;;5.10;99.90;;;5.17;77.24;101651.91;5075042;28;20090;-76
2021/01/05 06:09:33;;;;;;;14.27;12.67;;;5.20;99.90;;;5.01;77.21;101631.34;5073844;28;20064;-75
2021/01/05 06:12:00;;;;;;;17.13;13.47;;;5.10;99.90;;;4.91;78.08;101651.97;5075183;28;20455;-76
2021/01/05 06:14:28;;;;;;;13.90;12.50;;;5.00;99.90;;;5.03;77.98;101657.59;5074856;28;20437;-76
2021/01/05 06:16:55;;;;;;;14.50;13.00;;;5.10;99.90;;;5.00;77.81;101657.47;5073782;28;20051;-75
2021/01/05 06:19:23;;;;;;;16.10;13.37;;;5.10;99.90;;;5.04;78.63;101659.34;5073734;28;20048;-76
2021/01/05 06:21:51;;;;;;;15.87;13.00;;;5.00;99.90;;;4.76;78.28;101646.25;5075049;28;20048;-76
2021/01/05 06:24:19;;;;;;;15.07;13.23;;;4.90;99.90;;;4.92;79.11;101658.97;5074924;28;20033;-76
2021/01/05 06:26:46;;;;;;;14.00;12.50;;;4.90;99.90;;;4.68;78.86;101614.59;5073452;28;20490;-76
2021/01/05 06:29:13;;;;;;;14.10;12.70;;;5.00;99.90;;;4.83;78.66;101635.13;5073621;28;20040;-77
2021/01/05 06:31:41;;;;;;;15.70;13.77;;;5.00;99.90;;;5.03;78.70;101662.84;5074856;28;20059;-76
2021/01/05 06:34:11;;;;;;;14.57;12.87;;;5.00;99.90;;;5.01;78.90;101672.38;5074566;28;20032;-76
2021/01/05 06:36:42;;;;;;;15.67;13.10;;;5.00;99.90;;;4.84;79.08;101643.03;5074516;28;20045;-75
2021/01/05 06:39:10;;;;;;;16.13;13.93;;;5.00;99.90;;;4.93;78.58;101690.50;5074679;28;20037;-77
2021/01/05 06:41:37;;;;;;;15.90;13.97;;;5.00;99.90;;;5.02;78.78;101666.28;5074666;28;20029;-76
2021/01/05 06:44:06;;;;;;;13.90;12.37;;;5.00;99.90;;;4.74;78.43;101617.41;5075029;28;20041;-77
2021/01/05 06:46:33;;;;;;;16.50;13.93;;;5.00;99.90;;;4.93;78.84;101666.00;5074532;28;20078;-77
2021/01/05 06:49:03;;;;;;;16.43;14.27;;;5.00;99.90;;;4.84;78.90;101665.75;5074502;28;20064;-76
2021/01/05 06:51:30;;;;;;;15.83;13.87;;;4.90;99.90;;;4.79;79.34;101673.44;5074444;28;20036;-77
2021/01/05 06:53:59;;;;;;;17.30;14.90;;;4.80;99.90;;;4.89;79.58;101675.53;5074099;28;20301;-75
2021/01/05 06:56:26;;;;;;;17.67;14.93;;;4.80;99.90;;;4.68;79.84;101674.84;5074270;28;20055;-76
2021/01/05 06:59:04;;;;;;;16.90;15.03;;;4.80;99.90;;;4.87;79.98;101682.44;5072995;28;20044;-76
2021/01/05 07:01:31;;;;;;;19.43;16.27;;;4.80;99.90;;;4.58;79.94;101642.22;5073961;28;20048;-76
2021/01/05 07:03:59;;;;;;;19.97;16.00;;;4.80;99.90;;;4.90;79.66;101692.09;5073889;28;20053;-75
2021/01/05 07:06:26;;;;;;;19.33;15.47;;;4.90;99.90;;;4.25;79.46;101559.97;5074210;28;20041;-76
2021/01/05 07:08:54;;;;;;;20.43;15.83;;;5.00;99.90;;;4.99;79.42;101687.19;5073856;28;20486;-75
2021/01/05 07:11:23;;;;;;;19.33;15.90;;;5.00;99.90;;;4.84;79.62;101689.31;5074085;28;20054;-76
2021/01/05 07:13:51;;;;;;;21.67;16.47;;;4.90;99.90;;;4.67;80.69;101691.38;5073895;28;20048;-75
2021/01/05 07:16:18;;;;;;;18.43;15.47;;;4.70;99.90;;;4.77;81.08;101689.94;5072662;28;20048;-76
2021/01/05 07:18:45;;;;;;;19.80;15.67;;;4.70;99.90;;;4.52;81.40;101675.19;5073627;28;20036;-75
2021/01/05 07:21:12;;;;;;;19.67;16.30;;;4.70;99.90;;;4.90;80.67;101684.25;5072515;28;20049;-75
2021/01/05 07:23:40;;;;;;;19.30;15.73;;;4.80;99.90;;;4.90;80.73;101689.50;5073841;28;20040;-74
2021/01/05 07:26:07;;;;;;;20.17;15.73;;;4.90;99.90;;;4.97;80.82;101695.00;5073825;28;20090;-76
2021/01/05 07:28:39;;;;;;;20.37;16.23;;;5.00;99.90;;;4.82;80.59;101691.88;5073880;28;20105;-75
2021/01/05 07:31:07;;;;;;;22.13;16.93;;;5.00;99.90;;;4.81;81.30;101702.31;5072400;28;20071;-75
2021/01/05 07:33:34;;;;;;;20.90;16.57;;;4.90;99.90;;;4.70;81.58;101701.09;5073631;28;20038;-75
2021/01/05 07:36:04;;;;;;;20.67;16.90;;;4.80;99.90;;;4.68;82.13;101701.03;5073577;28;20044;-75
2021/01/05 07:38:32;;;;;;;22.02;17.10;;;4.70;99.90;;;4.80;82.15;101704.03;5073601;28;20086;-75
2021/01/05 07:40:59;;;;;;;20.63;16.20;;;4.80;99.90;;;4.63;81.88;101701.75;5073098;28;20090;-76
2021/01/05 07:43:26;;;;;;;22.70;16.90;;;4.70;99.90;;;4.83;82.00;101704.16;5073433;28;20044;-74
2021/01/05 07:45:55;;;;;;;21.70;17.17;;;4.80;99.90;;;4.88;81.92;101704.31;5073369;28;20036;-75
2021/01/05 07:48:24;;;;;;;24.55;17.90;;;4.90;99.90;;;4.72;82.36;101702.94;5073139;28;20552;-75
2021/01/05 07:50:51;;;;;;;23.67;17.53;;;4.70;99.90;;;4.85;81.86;101704.19;5073038;28;20046;-75
2021/01/05 07:53:19;;;;;;;23.27;17.67;;;4.80;99.90;;;4.78;81.90;101684.75;5071921;28;20485;-75
2021/01/05 07:55:50;;;;;;;24.03;18.07;;;4.90;99.90;;;4.97;81.73;101717.69;5073056;28;20033;-76
2021/01/05 07:58:17;;;;;;;24.40;18.27;;;5.00;99.90;;;3.70;81.73;101506.66;5072682;28;20049;-75
2021/01/05 08:00:45;;;;;;;22.53;16.67;;;4.90;99.90;;;5.08;82.11;101732.03;5072682;28;20090;-76
2021/01/05 08:03:13;;;;;;;22.17;18.07;;;5.00;99.90;;;4.86;81.80;101699.00;5071692;28;20509;-74
2021/01/05 08:05:40;;;;;;;23.00;17.80;;;5.10;99.90;;;4.76;82.16;101719.63;5073029;28;20039;-76
2021/01/05 08:08:08;;;;;;;21.47;17.27;;;4.90;99.90;;;4.88;82.34;101733.13;5071582;28;20094;-76
2021/01/05 08:10:38;;;;;;;23.57;18.40;;;4.90;99.90;;;4.94;82.02;101723.72;5072642;28;20037;-75
2021/01/05 08:13:08;;;;;;;24.77;17.93;;;4.90;99.90;;;4.68;82.27;101728.97;5072637;28;20489;-76
2021/01/05 08:15:35;;;;;;;23.33;18.10;;;4.80;99.90;;;4.92;82.96;101729.75;5072930;28;20278;-76
2021/01/05 08:18:06;;;;;;;24.43;18.13;;;4.90;99.90;;;5.08;82.64;101732.91;5072608;28;20123;-75
2021/01/05 08:20:35;;;;;;;21.93;18.27;;;5.00;99.90;;;5.25;82.27;101730.81;5072376;28;20044;-76
2021/01/05 08:23:04;;;;;;;23.60;18.13;;;5.20;99.90;;;4.96;81.60;101681.81;5072503;28;20035;-76
2021/01/05 08:25:33;;;;;;;24.27;18.50;;;5.20;99.90;;;5.32;81.70;101743.28;5072472;28;20041;-76
2021/01/05 08:28:01;;;;;;;23.87;18.13;;;5.30;99.90;;;5.28;81.36;101730.91;5072230;28;20373;-76
2021/01/05 08:30:32;;;;;;;22.63;18.30;;;5.30;99.90;;;5.31;81.41;101736.25;5072471;28;20106;-77
2021/01/05 08:33:01;;;;;;;24.30;18.95;;;5.30;99.90;;;5.25;80.96;101720.31;5072644;28;20102;-76
2021/01/05 08:35:30;;;;;;;24.42;18.95;;;5.40;99.90;;;5.45;80.79;101742.81;5088066;28;20413;-76
2021/01/05 08:37:58;;;;;;;25.37;18.27;;;5.40;99.90;;;5.47;81.11;101749.00;5071091;28;20055;-76
2021/01/05 08:40:29;;;;;;;23.10;18.57;;;5.40;99.90;;;5.45;80.66;101746.31;5072070;28;20500;-76
2021/01/05 08:42:56;;;;;;;21.85;17.88;;;5.40;99.90;;;5.40;80.97;101739.16;5072313;28;20086;-74
2021/01/05 08:45:28;;;;;;;22.77;17.93;;;5.40;99.90;;;5.45;80.68;101750.69;5072515;28;20043;-76
2021/01/05 08:47:56;;;;;;;24.20;19.03;;;5.40;99.90;;;5.44;80.85;101743.63;5072182;28;20470;-74
2021/01/05 08:50:28;;;;;;;22.83;18.00;;;5.40;99.90;;;5.53;80.47;101748.28;5072392;28;20094;-76
2021/01/05 08:52:56;;;;;;;21.77;18.27;;;5.50;99.90;;;5.54;80.53;101743.06;5072444;28;20037;-76
2021/01/05 08:55:25;;;;;;;22.80;18.20;;;5.50;99.90;;;5.59;80.54;101741.50;5072363;28;20086;-76
2021/01/05 08:57:52;;;;;;;22.30;18.20;;;5.50;99.90;;;5.57;80.40;101724.81;5071706;28;20060;-76
2021/01/05 09:00:22;;;;;;;23.70;18.27;;;5.60;99.90;;;5.45;80.06;101709.59;5071846;28;20036;-76
2021/01/05 09:02:49;;;;;;;23.20;17.33;;;5.60;99.90;;;5.66;80.21;101732.03;5070785;28;20044;-76
2021/01/05 09:05:17;;;;;;;22.20;17.80;;;5.60;99.90;;;5.64;80.24;101737.25;5072213;28;20040;-77
2021/01/05 09:07:45;;;;;;;23.33;18.33;;;5.60;99.90;;;5.67;80.15;101737.34;5071983;28;20090;-77
2021/01/05 09:10:19;;;;;;;23.43;17.63;;;5.60;99.90;;;5.63;79.78;101727.63;5071847;28;20390;-77
2021/01/05 09:12:47;;;;;;;21.57;17.27;;;5.60;99.90;;;5.71;79.61;101740.97;5070924;28;20049;-77
2021/01/05 09:15:18;;;;;;;23.27;17.00;;;5.70;99.90;;;5.49;79.57;101715.81;5072145;28;20037;-76
2021/01/05 09:17:47;;;;;;;21.77;17.27;;;5.60;99.90;;;5.69;79.72;101735.63;5087762;28;20124;-76
2021/01/05 09:20:17;;;;;;;20.43;16.63;;;5.60;99.90;;;5.58;79.78;101739.69;5072034;28;20082;-76
2021/01/05 09:22:45;;;;;;;20.38;16.75;;;5.60;99.90;;;5.61;79.77;101736.28;5072013;28;20044;-76
2021/01/05 09:25:13;;;;;;;21.80;17.30;;;5.60;99.90;;;5.65;80.17;101738.16;5071999;28;20040;-76
2021/01/05 09:27:41;;;;;;;20.20;16.70;;;5.60;99.90;;;5.64;79.97;101734.63;5071843;28;20036;-76
2021/01/05 09:30:14;;;;;;;20.20;15.83;;;5.60;99.90;;;5.50;80.12;101735.94;5071737;28;20033;-77
2021/01/05 09:32:42;;;;;;;19.03;15.43;;;5.60;99.90;;;5.57;80.02;101742.28;5071939;28;20412;-77
2021/01/05 09:35:12;;;;;;;20.93;16.43;;;5.50;99.90;;;5.61;80.10;101746.78;5071983;28;20102;-76
2021/01/05 09:37:41;;;;;;;20.05;16.52;;;5.60;99.90;;;5.65;80.16;101746.03;5072017;28;20438;-77
2021/01/05 09:40:10;;;;;;;21.03;16.63;;;5.60;99.90;;;5.47;79.72;101722.75;5073034;28;20109;-77
2021/01/05 09:42:37;;;;;;;21.07;16.67;;;5.60;99.90;;;5.55;80.12;101750.13;5075584;28;20094;-76
2021/01/05 09:45:07;;;;;;;21.33;16.87;;;5.60;99.90;;;5.31;80.12;101700.41;5075768;28;20685;-77
2021/01/05 09:47:35;;;;;;;22.10;17.13;;;5.60;99.90;;;5.59;80.33;101752.00;5075408;28;20048;-77
2021/01/05 09:50:04;;;;;;;21.90;17.43;;;5.50;99.90;;;5.67;80.00;101752.22;5075352;28;20440;-77
2021/01/05 09:52:33;;;;;;;21.03;16.40;;;5.60;99.90;;;5.75;80.00;101751.56;5075584;28;20440;-77
2021/01/05 09:55:01;;;;;;;19.63;16.47;;;5.70;99.90;;;5.72;79.59;101750.59;5075278;28;20097;-77
2021/01/05 09:57:29;;;;;;;20.07;16.63;;;5.70;99.90;;;5.59;79.74;101719.59;5075243;28;20049;-77
2021/01/05 09:59:56;;;;;;;19.33;15.53;;;5.70;99.90;;;5.78;79.74;101751.69;5075383;28;20126;-76
2021/01/05 10:02:24;;;;;;;19.03;15.53;;;5.70;99.90;;;5.72;79.55;101742.72;5074122;28;20389;-77
2021/01/05 10:04:52;;;;;;;18.50;15.43;;;5.70;99.90;;;5.58;79.71;101728.31;5075714;28;20044;-77
2021/01/05 10:07:21;;;;;;;19.53;15.83;;;5.70;99.90;;;5.73;80.01;101744.53;5073994;28;20041;-77
2021/01/05 10:09:48;;;;;;;18.47;15.17;;;5.70;99.90;;;5.68;80.01;101744.38;5075264;28;20043;-77
2021/01/05 10:12:15;;;;;;;16.30;14.53;;;5.70;99.90;;;5.70;79.89;101741.78;5075145;28;20045;-77
2021/01/05 10:14:43;;;;;;;19.87;15.10;;;5.70;99.90;;;5.61;80.43;101731.94;5075167;28;20033;-76
2021/01/05 10:17:10;;;;;;;18.10;14.30;;;5.70;99.90;;;5.72;80.16;101743.63;5074891;28;20064;-78
2021/01/05 10:19:38;;;;;;;18.10;14.73;;;5.70;99.90;;;5.69;80.16;101733.00;5073518;28;20683;-76
2021/01/05 10:22:06;;;;;;;18.40;14.10;;;5.70;99.90;;;5.67;80.79;101737.34;5075276;28;20420;-77
2021/01/05 10:24:34;;;;;;;19.30;14.57;;;5.70;99.90;;;5.58;80.91;101710.84;5075094;28;20116;-76
2021/01/05 10:27:01;;;;;;;16.77;14.17;;;5.70;99.90;;;5.83;80.81;101734.34;5074827;28;20102;-77
2021/01/05 10:29:28;;;;;;;16.27;14.30;;;5.80;99.90;;;5.52;81.44;101726.41;5074622;28;20045;-77
2021/01/05 10:31:56;;;;;;;16.77;13.37;;;5.70;99.90;;;5.37;81.62;101704.97;5074289;28;20037;-77
2021/01/05 10:34:25;;;;;;;16.67;14.47;;;5.70;99.90;;;5.70;81.47;101737.44;5074615;28;20048;-78
2021/01/05 10:36:54;;;;;;;18.77;14.17;;;5.80;99.90;;;5.78;81.05;101740.28;5074465;28;20064;-78
2021/01/05 10:39:24;;;;;;;17.17;13.70;;;5.80;99.90;;;5.71;81.09;101727.84;5074647;28;20052;-77
2021/01/05 10:41:52;;;;;;;15.75;13.18;;;5.70;99.90;;;5.65;81.35;101739.06;5074755;28;20048;-77
2021/01/05 10:44:21;;;;;;;17.60;13.57;;;5.70;99.90;;;5.27;81.35;101692.41;5074322;28;20379;-77